createdAt,value
2018-10-03T00:00:27.499Z,4.77
2018-10-03T00:02:54.445Z,5.20
2018-10-03T00:05:21.407Z,4.37
2018-10-03T00:07:48.410Z,4.43
2018-10-03T00:10:15.389Z,4.90
2018-10-03T00:12:42.340Z,4.67
2018-10-03T00:15:09.286Z,5.20
2018-10-03T00:17:36.236Z,4.73
2018-10-03T00:20:03.210Z,4.00
2018-10-03T00:22:30.169Z,4.03
2018-10-03T00:24:57.101Z,5.43
2018-10-03T00:27:24.065Z,4.20
2018-10-03T00:29:51.013Z,5.20
2018-10-03T00:32:17.982Z,5.47
2018-10-03T00:34:44.961Z,4.83
2018-10-03T00:37:11.914Z,5.00
2018-10-03T00:39:38.878Z,4.53
2018-10-03T00:42:05.876Z,4.80
2018-10-03T00:44:32.816Z,4.40
2018-10-03T00:46:59.817Z,4.53
2018-10-03T00:49:26.777Z,4.70
2018-10-03T00:51:53.733Z,4.30
2018-10-03T00:54:20.687Z,5.00
2018-10-03T00:56:47.639Z,4.97
2018-10-03T00:59:14.573Z,4.10
2018-10-03T01:01:41.529Z,4.20
2018-10-03T01:04:08.477Z,4.43
2018-10-03T01:06:35.429Z,3.40
2018-10-03T01:09:02.405Z,4.13
2018-10-03T01:11:29.373Z,4.20
2018-10-03T01:13:56.332Z,4.43
2018-10-03T01:16:23.293Z,5.47
2018-10-03T01:18:50.229Z,4.07
2018-10-03T01:21:17.175Z,4.77
2018-10-03T01:23:44.166Z,5.63
2018-10-03T01:26:11.124Z,4.83
2018-10-03T01:28:38.084Z,5.97
2018-10-03T01:31:05.069Z,5.10
2018-10-03T01:33:32.038Z,5.30
2018-10-03T01:35:59.060Z,4.53
2018-10-03T01:38:26.064Z,5.10
2018-10-03T01:40:52.974Z,4.40
2018-10-03T01:43:19.950Z,4.30
2018-10-03T01:45:46.901Z,4.70
2018-10-03T01:48:13.853Z,4.67
2018-10-03T01:50:40.806Z,4.70
2018-10-03T01:53:07.761Z,4.17
2018-10-03T01:55:34.698Z,4.30
2018-10-03T01:58:01.872Z,4.63
2018-10-03T02:00:28.818Z,3.90
2018-10-03T02:02:55.776Z,4.80
2018-10-03T02:05:22.734Z,4.57
2018-10-03T02:07:49.692Z,4.17
2018-10-03T02:10:16.644Z,4.67
2018-10-03T02:12:43.631Z,4.93
2018-10-03T02:15:10.569Z,4.80
2018-10-03T02:17:37.532Z,5.73
2018-10-03T02:20:04.941Z,4.53
2018-10-03T02:22:31.904Z,5.70
2018-10-03T02:24:58.852Z,5.40
2018-10-03T02:27:25.827Z,5.33
2018-10-03T02:29:52.773Z,5.23
2018-10-03T02:32:19.753Z,5.93
2018-10-03T02:34:46.699Z,5.53
2018-10-03T02:37:13.645Z,5.50
2018-10-03T02:39:40.585Z,5.80
2018-10-03T02:42:07.537Z,6.30
2018-10-03T02:44:34.495Z,5.43
2018-10-03T02:47:01.438Z,6.60
2018-10-03T02:49:28.398Z,5.57
2018-10-03T02:51:55.324Z,5.73
2018-10-03T02:54:22.333Z,6.03
2018-10-03T02:56:49.281Z,5.83
2018-10-03T02:59:16.272Z,5.73
2018-10-03T03:01:43.245Z,5.47
2018-10-03T03:04:10.141Z,5.40
2018-10-03T03:06:37.092Z,5.87
2018-10-03T03:09:08.041Z,5.73
2018-10-03T03:11:34.861Z,5.47
2018-10-03T03:14:01.834Z,5.47
2018-10-03T03:16:28.775Z,4.90
2018-10-03T03:18:55.734Z,4.90
2018-10-03T03:21:22.673Z,5.10
2018-10-03T03:23:49.621Z,4.53
2018-10-03T03:26:16.558Z,4.63
2018-10-03T03:28:43.495Z,4.47
2018-10-03T03:31:10.440Z,3.90
2018-10-03T03:33:37.409Z,4.87
2018-10-03T03:36:04.390Z,4.07
2018-10-03T03:38:31.346Z,4.70
2018-10-03T03:40:58.300Z,4.60
2018-10-03T03:43:25.267Z,5.13
2018-10-03T03:45:52.215Z,4.90
2018-10-03T03:48:19.181Z,5.23
2018-10-03T03:50:46.139Z,3.53
2018-10-03T03:53:13.113Z,4.80
2018-10-03T03:55:40.071Z,4.23
2018-10-03T03:58:07.042Z,3.90
2018-10-03T04:00:34.005Z,3.40
2018-10-03T04:03:00.954Z,4.03
2018-10-03T04:05:27.919Z,3.13
2018-10-03T04:07:54.898Z,3.20
2018-10-03T04:10:21.837Z,3.07
2018-10-03T04:12:48.966Z,2.97
2018-10-03T04:15:15.922Z,2.43
2018-10-03T04:17:42.874Z,2.57
2018-10-03T04:20:09.813Z,2.40
2018-10-03T04:22:36.760Z,2.20
2018-10-03T04:25:03.713Z,2.50
2018-10-03T04:27:30.639Z,2.40
2018-10-03T04:29:57.579Z,1.77
2018-10-03T04:32:24.517Z,2.00
2018-10-03T04:34:51.472Z,2.30
2018-10-03T04:37:18.410Z,2.60
2018-10-03T04:39:45.337Z,2.07
2018-10-03T04:42:12.304Z,2.40
2018-10-03T04:44:39.235Z,2.20
2018-10-03T04:47:06.180Z,2.40
2018-10-03T04:49:33.118Z,3.17
2018-10-03T04:52:00.052Z,2.37
2018-10-03T04:54:26.999Z,2.83
2018-10-03T04:56:53.930Z,3.30
2018-10-03T04:59:20.875Z,2.97
2018-10-03T05:01:47.801Z,3.27
2018-10-03T05:04:14.742Z,2.83
2018-10-03T05:06:41.681Z,3.07
2018-10-03T05:09:08.635Z,2.90
2018-10-03T05:11:35.582Z,3.63
2018-10-03T05:14:02.532Z,3.27
2018-10-03T05:16:29.470Z,2.83
2018-10-03T05:18:56.398Z,3.17
2018-10-03T05:21:23.338Z,3.50
2018-10-03T05:23:50.273Z,2.80
2018-10-03T05:26:17.221Z,2.47
2018-10-03T05:28:44.160Z,2.47
2018-10-03T05:31:11.094Z,2.93
2018-10-03T05:33:38.073Z,2.60
2018-10-03T05:36:05.054Z,3.30
2018-10-03T05:38:31.986Z,3.03
2018-10-03T05:40:58.930Z,3.63
2018-10-03T05:43:25.894Z,3.23
2018-10-03T05:45:52.837Z,3.30
2018-10-03T05:48:19.815Z,2.97
2018-10-03T05:50:46.768Z,2.90
2018-10-03T05:53:13.698Z,2.73
2018-10-03T05:55:40.637Z,3.00
2018-10-03T05:58:07.578Z,2.70
2018-10-03T06:00:34.562Z,3.63
2018-10-03T06:03:01.498Z,2.97
2018-10-03T06:05:28.433Z,3.03
2018-10-03T06:07:55.368Z,3.20
2018-10-03T06:10:22.303Z,3.03
2018-10-03T06:12:49.247Z,2.70
2018-10-03T06:15:16.187Z,3.17
2018-10-03T06:17:43.116Z,3.00
2018-10-03T06:20:10.062Z,3.30
2018-10-03T06:22:36.986Z,3.23
2018-10-03T06:25:03.975Z,3.67
2018-10-03T06:27:30.902Z,3.03
2018-10-03T06:29:57.878Z,2.90
2018-10-03T06:32:24.808Z,3.27
2018-10-03T06:34:51.762Z,3.03
2018-10-03T06:37:18.716Z,3.80
2018-10-03T06:39:45.653Z,2.93
2018-10-03T06:42:12.601Z,2.87
2018-10-03T06:44:39.541Z,3.00
2018-10-03T06:47:06.541Z,3.00
2018-10-03T06:49:33.469Z,3.23
2018-10-03T06:52:00.413Z,3.27
2018-10-03T06:54:27.352Z,3.13
2018-10-03T06:56:54.326Z,2.80
2018-10-03T06:59:21.278Z,3.10
2018-10-03T07:01:48.233Z,3.07
2018-10-03T07:04:15.173Z,2.80
2018-10-03T07:06:42.118Z,3.10
2018-10-03T07:09:09.077Z,3.60
2018-10-03T07:11:42.978Z,3.13
2018-10-03T07:14:09.935Z,3.03
2018-10-03T07:16:36.883Z,3.33
2018-10-03T07:19:03.846Z,3.03
2018-10-03T07:21:30.790Z,3.67
2018-10-03T07:23:57.747Z,4.03
2018-10-03T07:26:24.698Z,3.90
2018-10-03T07:28:51.638Z,3.43
2018-10-03T07:31:18.582Z,2.70
2018-10-03T07:33:45.538Z,2.90
2018-10-03T07:36:12.484Z,2.53
2018-10-03T07:38:39.410Z,2.57
2018-10-03T07:41:06.375Z,2.67
2018-10-03T07:43:33.338Z,2.10
2018-10-03T07:46:00.282Z,2.37
2018-10-03T07:48:27.216Z,2.67
2018-10-03T07:50:54.172Z,2.37
2018-10-03T07:53:21.098Z,2.10
2018-10-03T07:55:48.050Z,2.00
2018-10-03T07:58:14.991Z,2.23
2018-10-03T08:00:41.971Z,2.30
2018-10-03T08:03:11.187Z,2.80
2018-10-03T08:05:38.132Z,2.27
2018-10-03T08:08:05.876Z,2.50
2018-10-03T08:10:32.831Z,2.10
2018-10-03T08:12:59.765Z,2.30
2018-10-03T08:15:26.708Z,2.33
2018-10-03T08:17:53.654Z,3.00
2018-10-03T08:20:20.645Z,2.53
2018-10-03T08:22:47.591Z,2.43
2018-10-03T08:25:14.527Z,3.00
2018-10-03T08:27:42.392Z,2.90
2018-10-03T08:30:10.817Z,2.50
2018-10-03T08:32:37.952Z,2.30
2018-10-03T08:35:05.367Z,2.73
2018-10-03T08:37:32.497Z,2.60
2018-10-03T08:39:59.958Z,2.50
2018-10-03T08:42:27.152Z,2.40
2018-10-03T08:44:54.087Z,3.10
2018-10-03T08:47:21.348Z,2.90
2018-10-03T08:49:48.578Z,2.67
2018-10-03T08:52:15.553Z,2.30
2018-10-03T08:54:42.937Z,2.53
2018-10-03T08:57:09.989Z,2.50
2018-10-03T08:59:37.339Z,2.97
2018-10-03T09:02:04.806Z,2.87
2018-10-03T09:04:31.746Z,2.70
2018-10-03T09:06:58.706Z,2.83
2018-10-03T09:09:25.663Z,2.70
2018-10-03T09:11:53.077Z,3.40
2018-10-03T09:14:20.015Z,2.60
2018-10-03T09:16:46.972Z,3.30
2018-10-03T09:19:15.462Z,3.20
2018-10-03T09:21:42.479Z,3.00
2018-10-03T09:24:09.427Z,3.33
2018-10-03T09:26:36.415Z,2.80
2018-10-03T09:29:03.413Z,3.00
2018-10-03T09:31:30.624Z,3.23
2018-10-03T09:33:57.613Z,2.80
2018-10-03T09:36:24.559Z,3.77
2018-10-03T09:38:51.555Z,3.10
2018-10-03T09:41:18.514Z,2.70
2018-10-03T09:43:45.535Z,2.57
2018-10-03T09:46:12.531Z,3.00
2018-10-03T09:48:39.509Z,2.50
2018-10-03T09:51:06.472Z,3.30
2018-10-03T09:53:33.446Z,2.40
2018-10-03T09:56:00.395Z,2.67
2018-10-03T09:58:27.370Z,2.70
2018-10-03T10:01:00.167Z,2.60
2018-10-03T10:03:27.154Z,3.30
2018-10-03T10:05:54.098Z,3.60
2018-10-03T10:08:21.056Z,3.23
2018-10-03T10:10:48.071Z,2.57
2018-10-03T10:13:15.625Z,2.50
2018-10-03T10:15:42.590Z,2.77
2018-10-03T10:18:09.561Z,3.27
2018-10-03T10:20:36.550Z,2.33
2018-10-03T10:23:03.519Z,2.70
2018-10-03T10:25:30.482Z,2.80
2018-10-03T10:27:57.455Z,2.67
2018-10-03T10:30:24.381Z,2.60
2018-10-03T10:32:51.415Z,3.10
2018-10-03T10:35:18.319Z,2.60
2018-10-03T10:37:45.281Z,2.60
2018-10-03T10:40:12.306Z,2.50
2018-10-03T10:42:39.203Z,2.67
2018-10-03T10:45:06.407Z,2.70
2018-10-03T10:47:33.367Z,2.70
2018-10-03T10:50:00.738Z,2.50
2018-10-03T10:52:27.695Z,2.93
2018-10-03T10:54:54.640Z,2.97
2018-10-03T10:57:21.562Z,2.60
2018-10-03T10:59:48.829Z,2.40
2018-10-03T11:02:15.785Z,2.70
2018-10-03T11:04:42.735Z,2.63
2018-10-03T11:07:09.670Z,2.30
2018-10-03T11:09:36.990Z,2.50
2018-10-03T11:12:03.917Z,2.80
2018-10-03T11:14:31.186Z,2.43
2018-10-03T11:16:58.185Z,2.73
2018-10-03T11:19:25.088Z,3.30
2018-10-03T11:21:52.029Z,2.33
2018-10-03T11:24:19.117Z,2.37
2018-10-03T11:26:45.957Z,2.60
2018-10-03T11:29:12.911Z,2.40
2018-10-03T11:31:39.846Z,2.10
2018-10-03T11:34:06.858Z,2.33
2018-10-03T11:36:33.801Z,2.33
2018-10-03T11:39:00.745Z,2.40
2018-10-03T11:41:27.776Z,2.37
2018-10-03T11:43:54.807Z,2.70
2018-10-03T11:46:21.775Z,2.27
2018-10-03T11:48:48.714Z,2.23
2018-10-03T11:51:15.625Z,2.20
2018-10-03T11:53:42.559Z,2.20
2018-10-03T11:56:09.491Z,1.87
2018-10-03T11:58:36.431Z,2.17
2018-10-03T12:01:03.370Z,2.30
2018-10-03T12:03:30.318Z,1.90
2018-10-03T12:05:57.247Z,2.17
2018-10-03T12:08:24.177Z,2.03
2018-10-03T12:10:51.105Z,2.53
2018-10-03T12:13:18.038Z,2.00
2018-10-03T12:15:44.999Z,2.00
2018-10-03T12:18:11.930Z,1.90
2018-10-03T12:20:38.898Z,1.70
2018-10-03T12:23:05.891Z,2.30
2018-10-03T12:25:32.836Z,2.10
2018-10-03T12:27:59.773Z,1.90
2018-10-03T12:30:26.718Z,1.90
2018-10-03T12:32:53.652Z,2.20
2018-10-03T12:35:26.413Z,2.53
2018-10-03T12:37:53.343Z,2.47
2018-10-03T12:40:20.273Z,1.93
2018-10-03T12:42:47.206Z,1.73
2018-10-03T12:45:14.271Z,2.43
2018-10-03T12:47:41.095Z,2.30
2018-10-03T12:50:07.926Z,2.00
2018-10-03T12:52:34.838Z,1.67
2018-10-03T12:55:01.890Z,2.07
2018-10-03T12:57:28.849Z,1.70
2018-10-03T12:59:55.795Z,1.60
2018-10-03T13:02:22.718Z,1.60
2018-10-03T13:04:49.658Z,1.70
2018-10-03T13:07:16.582Z,1.67
2018-10-03T13:09:43.516Z,1.80
2018-10-03T13:12:10.442Z,1.57
2018-10-03T13:14:37.387Z,1.73
2018-10-03T13:17:04.314Z,1.50
2018-10-03T13:19:31.250Z,1.30
2018-10-03T13:21:58.178Z,1.53
2018-10-03T13:24:25.145Z,1.83
2018-10-03T13:26:52.054Z,1.50
2018-10-03T13:29:18.999Z,1.37
2018-10-03T13:31:45.943Z,1.60
2018-10-03T13:34:12.878Z,1.60
2018-10-03T13:36:39.835Z,1.60
2018-10-03T13:39:07.197Z,1.80
2018-10-03T13:41:34.243Z,1.60
2018-10-03T13:44:01.161Z,1.47
2018-10-03T13:46:28.330Z,1.87
2018-10-03T13:48:55.250Z,1.70
2018-10-03T13:51:22.920Z,1.80
2018-10-03T13:53:49.866Z,1.60
2018-10-03T13:56:16.805Z,1.53
2018-10-03T13:58:43.743Z,1.60
2018-10-03T14:01:10.744Z,1.80
2018-10-03T14:03:37.682Z,1.90
2018-10-03T14:06:04.961Z,1.80
2018-10-03T14:08:31.917Z,2.37
2018-10-03T14:10:58.845Z,1.80
2018-10-03T14:13:25.797Z,2.67
2018-10-03T14:15:52.737Z,2.40
2018-10-03T14:18:19.888Z,2.23
2018-10-03T14:20:46.951Z,2.27
2018-10-03T14:23:14.495Z,2.10
2018-10-03T14:25:48.232Z,2.10
2018-10-03T14:28:15.661Z,2.20
2018-10-03T14:30:42.613Z,2.43
2018-10-03T14:33:09.573Z,2.30
2018-10-03T14:35:36.605Z,2.77
2018-10-03T14:38:03.633Z,2.30
2018-10-03T14:40:30.580Z,2.63
2018-10-03T14:42:57.559Z,2.10
2018-10-03T14:45:24.498Z,2.50
2018-10-03T14:47:51.428Z,2.50
2018-10-03T14:50:18.518Z,2.73
2018-10-03T14:52:45.478Z,2.10
2018-10-03T14:55:12.438Z,2.10
2018-10-03T14:57:39.387Z,2.50
2018-10-03T15:00:07.418Z,2.67
2018-10-03T15:02:34.440Z,2.20
2018-10-03T15:05:01.388Z,2.03
2018-10-03T15:07:28.345Z,2.30
2018-10-03T15:09:55.286Z,2.30
2018-10-03T15:12:22.276Z,1.90
2018-10-03T15:14:49.245Z,2.23
2018-10-03T15:17:16.200Z,1.80
2018-10-03T15:19:43.234Z,2.00
2018-10-03T15:22:10.174Z,2.13
2018-10-03T15:24:37.119Z,1.90
2018-10-03T15:27:04.070Z,2.07
2018-10-03T15:29:31.591Z,2.40
2018-10-03T15:31:58.553Z,2.17
2018-10-03T15:34:25.522Z,2.00
2018-10-03T15:36:52.515Z,2.30
2018-10-03T15:39:19.445Z,2.23
2018-10-03T15:41:46.384Z,2.40
2018-10-03T15:44:13.337Z,2.27
2018-10-03T15:46:40.293Z,2.13
2018-10-03T15:49:07.230Z,2.23
2018-10-03T15:51:34.174Z,2.43
2018-10-03T15:54:01.253Z,2.27
2018-10-03T15:56:28.208Z,2.60
2018-10-03T15:58:55.146Z,2.77
2018-10-03T16:01:22.133Z,2.53
2018-10-03T16:03:49.323Z,1.90
2018-10-03T16:06:16.304Z,2.30
2018-10-03T16:08:43.245Z,2.17
2018-10-03T16:11:10.186Z,2.63
2018-10-03T16:13:37.244Z,2.27
2018-10-03T16:16:04.187Z,2.27
2018-10-03T16:18:31.281Z,2.00
2018-10-03T16:20:58.226Z,2.60
2018-10-03T16:23:25.178Z,2.20
2018-10-03T16:25:52.118Z,2.13
2018-10-03T16:28:19.073Z,2.30
2018-10-03T16:30:46.018Z,2.30
2018-10-03T16:33:13.005Z,1.97
2018-10-03T16:35:39.943Z,2.20
2018-10-03T16:38:06.878Z,2.17
2018-10-03T16:40:33.817Z,2.27
2018-10-03T16:43:00.929Z,2.03
2018-10-03T16:45:27.858Z,2.10
2018-10-03T16:47:54.809Z,2.37
2018-10-03T16:50:21.750Z,2.00
2018-10-03T16:55:22.458Z,2.20
2018-10-03T16:57:49.430Z,2.57
2018-10-03T17:00:16.383Z,2.33
2018-10-03T17:02:43.407Z,3.07
2018-10-03T17:05:10.342Z,2.50
2018-10-03T17:07:37.294Z,2.37
2018-10-03T17:10:05.050Z,2.50
2018-10-03T17:12:32.022Z,2.83
2018-10-03T17:14:58.970Z,2.43
2018-10-03T17:17:25.929Z,2.50
2018-10-03T17:19:52.892Z,2.23
2018-10-03T17:22:19.877Z,2.40
2018-10-03T17:24:46.827Z,2.50
2018-10-03T17:27:13.770Z,2.57
2018-10-03T17:29:40.779Z,3.20
2018-10-03T17:32:08.675Z,2.60
2018-10-03T17:34:35.778Z,2.30
2018-10-03T17:37:02.821Z,2.33
2018-10-03T17:39:29.880Z,2.47
2018-10-03T17:41:57.059Z,2.60
2018-10-03T17:44:24.221Z,2.17
2018-10-03T17:46:52.692Z,2.93
2018-10-03T17:49:19.630Z,2.53
2018-10-03T17:51:47.153Z,2.50
2018-10-03T17:54:14.106Z,2.67
2018-10-03T17:56:41.111Z,3.30
2018-10-03T17:59:08.342Z,2.70
2018-10-03T18:01:37.066Z,2.70
2018-10-03T18:04:04.753Z,2.93
2018-10-03T18:06:31.689Z,3.27
2018-10-03T18:08:58.610Z,2.60
2018-10-03T18:11:25.795Z,2.27
2018-10-03T18:13:52.749Z,2.57
2018-10-03T18:16:19.704Z,2.40
2018-10-03T18:18:46.655Z,2.57
2018-10-03T18:21:13.590Z,2.57
2018-10-03T18:23:40.522Z,2.10
2018-10-03T18:26:07.472Z,2.10
2018-10-03T18:28:34.405Z,3.10
2018-10-03T18:31:01.367Z,2.80
2018-10-03T18:33:28.330Z,2.83
2018-10-03T18:35:55.287Z,2.43
2018-10-03T18:38:22.225Z,2.70
2018-10-03T18:40:49.183Z,2.37
2018-10-03T18:43:16.467Z,2.50
2018-10-03T18:45:43.417Z,2.10
2018-10-03T18:48:10.351Z,2.73
2018-10-03T18:50:37.294Z,1.90
2018-10-03T18:53:04.356Z,2.30
2018-10-03T18:55:31.422Z,2.50
2018-10-03T18:57:58.346Z,2.80
2018-10-03T19:00:25.296Z,2.53
2018-10-03T19:02:52.236Z,2.70
2018-10-03T19:05:19.238Z,2.50
2018-10-03T19:07:46.161Z,2.40
2018-10-03T19:10:13.107Z,2.17
2018-10-03T19:12:40.145Z,2.33
2018-10-03T19:15:07.087Z,2.60
2018-10-03T19:17:34.038Z,3.17
2018-10-03T19:20:01.038Z,3.40
2018-10-03T19:22:27.923Z,2.70
2018-10-03T19:24:54.871Z,2.40
2018-10-03T19:27:21.813Z,1.90
2018-10-03T19:29:48.819Z,2.00
2018-10-03T19:32:15.761Z,2.30
2018-10-03T19:34:42.710Z,2.00
2018-10-03T19:37:09.657Z,2.30
2018-10-03T19:39:36.579Z,2.33
2018-10-03T19:42:03.567Z,2.47
2018-10-03T19:44:30.494Z,2.47
2018-10-03T19:46:57.441Z,2.47
2018-10-03T19:49:24.375Z,2.67
2018-10-03T19:51:51.477Z,2.47
2018-10-03T19:54:18.409Z,2.30
2018-10-03T19:56:45.346Z,2.20
2018-10-03T19:59:12.327Z,2.43
2018-10-03T20:01:39.277Z,2.57
2018-10-03T20:04:06.329Z,2.47
2018-10-03T20:06:33.192Z,2.20
2018-10-03T20:09:00.141Z,2.50
2018-10-03T20:11:27.301Z,2.40
2018-10-03T20:13:54.384Z,2.43
2018-10-03T20:16:21.683Z,2.03
2018-10-03T20:18:48.686Z,1.80
2018-10-03T20:21:15.744Z,2.10
2018-10-03T20:23:42.724Z,2.30
2018-10-03T20:26:09.982Z,1.83
2018-10-03T20:28:36.927Z,2.47
2018-10-03T20:31:03.882Z,2.70
2018-10-03T20:33:30.918Z,3.10
2018-10-03T20:35:58.082Z,2.70
2018-10-03T20:38:25.590Z,2.87
2018-10-03T20:40:52.541Z,2.43
2018-10-03T20:43:20.126Z,2.70
2018-10-03T20:45:47.086Z,2.53
2018-10-03T20:48:14.110Z,2.87
2018-10-03T20:50:41.638Z,2.40
2018-10-03T20:53:08.786Z,2.43
2018-10-03T20:55:35.741Z,3.57
2018-10-03T20:58:02.686Z,2.73
2018-10-03T21:00:30.030Z,3.93
2018-10-03T21:02:57.121Z,3.40
2018-10-03T21:05:24.338Z,3.60
2018-10-03T21:07:51.306Z,2.73
2018-10-03T21:10:18.338Z,3.13
2018-10-03T21:12:45.466Z,2.30
2018-10-03T21:15:12.469Z,2.33
2018-10-03T21:17:39.402Z,2.77
2018-10-03T21:20:06.362Z,2.60
2018-10-03T21:22:33.487Z,3.20
2018-10-03T21:25:00.777Z,3.20
2018-10-03T21:27:27.723Z,3.63
2018-10-03T21:29:54.755Z,3.40
2018-10-03T21:32:21.786Z,3.80
2018-10-03T21:34:48.882Z,3.80
2018-10-03T21:37:16.077Z,4.20
2018-10-03T21:39:43.034Z,4.47
2018-10-03T21:42:09.964Z,4.80
2018-10-03T21:44:36.999Z,3.97
2018-10-03T21:47:03.966Z,3.77
2018-10-03T21:49:30.985Z,4.20
2018-10-03T21:51:57.914Z,3.90
2018-10-03T21:54:24.942Z,3.87
2018-10-03T21:56:52.023Z,4.23
2018-10-03T21:59:19.088Z,4.37
2018-10-03T22:01:46.024Z,3.30
2018-10-03T22:04:12.953Z,3.73
2018-10-03T22:06:39.901Z,3.57
2018-10-03T22:09:12.651Z,3.40
2018-10-03T22:11:41.452Z,3.27
2018-10-03T22:14:10.489Z,3.47
2018-10-03T22:16:37.457Z,3.20
2018-10-03T22:19:04.382Z,3.13
2018-10-03T22:21:31.371Z,3.57
2018-10-03T22:23:58.322Z,2.97
2018-10-03T22:26:25.558Z,3.30
2018-10-03T22:28:53.209Z,2.90
2018-10-03T22:31:20.527Z,3.70
2018-10-03T22:33:50.074Z,3.80
2018-10-03T22:36:17.311Z,3.30
2018-10-03T22:38:44.441Z,3.63
2018-10-03T22:41:11.720Z,3.03
2018-10-03T22:43:38.690Z,3.43
2018-10-03T22:46:06.243Z,3.27
2018-10-03T22:48:33.186Z,3.23
2018-10-03T22:51:00.245Z,3.20
2018-10-03T22:53:27.109Z,3.07
2018-10-03T22:55:54.046Z,3.13
2018-10-03T22:58:20.971Z,3.23
2018-10-03T23:00:47.962Z,3.80
2018-10-03T23:03:14.898Z,3.50
2018-10-03T23:05:41.818Z,3.00
2018-10-03T23:08:08.741Z,3.50
2018-10-03T23:10:35.677Z,3.30
2018-10-03T23:13:02.627Z,3.50
2018-10-03T23:15:29.623Z,3.23
2018-10-03T23:17:56.560Z,3.27
2018-10-03T23:20:23.501Z,3.30
2018-10-03T23:22:50.442Z,2.90
2018-10-03T23:25:17.395Z,2.80
2018-10-03T23:27:44.351Z,2.70
2018-10-03T23:30:11.330Z,2.77
2018-10-03T23:32:38.277Z,2.83
2018-10-03T23:35:05.251Z,3.20
2018-10-03T23:37:32.186Z,3.00
2018-10-03T23:39:59.201Z,3.03
2018-10-03T23:42:26.184Z,2.93
2018-10-03T23:44:53.112Z,2.77
2018-10-03T23:47:20.064Z,2.70
2018-10-03T23:49:47.015Z,2.70
2018-10-03T23:52:13.955Z,2.80
2018-10-03T23:54:40.893Z,2.90
2018-10-03T23:57:07.829Z,3.33
2018-10-03T23:59:34.772Z,3.43
